createdAt,value
2018-09-30T00:01:24.482Z,15.17
2018-09-30T00:03:52.318Z,18.63
2018-09-30T00:06:20.154Z,13.60
2018-09-30T00:08:48.152Z,13.33
2018-09-30T00:11:16.005Z,16.70
2018-09-30T00:13:43.851Z,12.33
2018-09-30T00:16:11.681Z,20.47
2018-09-30T00:18:39.568Z,16.20
2018-09-30T00:21:07.908Z,13.37
2018-09-30T00:23:40.997Z,13.73
2018-09-30T00:26:13.934Z,17.37
2018-09-30T00:28:41.989Z,19.23
2018-09-30T00:31:09.874Z,15.10
2018-09-30T00:33:41.903Z,14.53
2018-09-30T00:36:09.742Z,16.03
2018-09-30T00:38:37.660Z,12.30
2018-09-30T00:41:05.595Z,13.47
2018-09-30T00:43:33.429Z,14.60
2018-09-30T00:46:01.289Z,18.80
2018-09-30T00:48:29.135Z,13.57
2018-09-30T00:50:57.003Z,12.30
2018-09-30T00:53:24.841Z,15.27
2018-09-30T00:55:52.694Z,16.27
2018-09-30T00:58:20.536Z,17.23
2018-09-30T01:00:48.490Z,14.47
2018-09-30T01:03:16.359Z,14.07
2018-09-30T01:05:44.230Z,17.73
2018-09-30T01:08:12.077Z,14.90
2018-09-30T01:10:39.901Z,16.40
2018-09-30T01:13:07.939Z,18.03
2018-09-30T01:15:35.777Z,17.20
2018-09-30T01:18:03.731Z,15.87
2018-09-30T01:20:31.569Z,19.37
2018-09-30T01:22:59.397Z,14.67
2018-09-30T01:25:27.239Z,10.50
2018-09-30T01:27:55.092Z,18.37
2018-09-30T01:30:22.945Z,15.53
2018-09-30T01:32:50.826Z,14.13
2018-09-30T01:35:18.676Z,14.00
2018-09-30T01:37:46.514Z,12.00
2018-09-30T01:40:14.425Z,11.87
2018-09-30T01:42:42.253Z,16.53
2018-09-30T01:45:10.519Z,13.40
2018-09-30T01:47:38.357Z,11.83
2018-09-30T01:50:06.267Z,12.53
2018-09-30T01:52:39.347Z,12.23
2018-09-30T01:55:07.205Z,11.87
2018-09-30T01:57:35.097Z,12.70
2018-09-30T02:00:02.988Z,14.90
2018-09-30T02:02:30.821Z,12.67
2018-09-30T02:04:58.650Z,15.30
2018-09-30T02:07:26.496Z,12.80
2018-09-30T02:09:54.339Z,10.20
2018-09-30T02:12:22.151Z,13.23
2018-09-30T02:14:49.986Z,10.00
2018-09-30T02:17:17.862Z,8.77
2018-09-30T02:19:45.801Z,12.70
2018-09-30T02:22:13.668Z,12.80
2018-09-30T02:24:41.684Z,11.27
2018-09-30T02:27:09.529Z,11.07
2018-09-30T02:29:37.407Z,11.67
2018-09-30T02:32:05.326Z,10.97
2018-09-30T02:34:33.157Z,11.50
2018-09-30T02:37:01.009Z,10.07
2018-09-30T02:39:28.820Z,12.23
2018-09-30T02:41:56.647Z,9.73
2018-09-30T02:44:24.468Z,14.60
2018-09-30T02:46:52.293Z,11.93
2018-09-30T02:49:20.166Z,10.73
2018-09-30T02:51:48.184Z,11.40
2018-09-30T02:54:16.041Z,10.57
2018-09-30T02:56:43.877Z,11.93
2018-09-30T02:59:11.693Z,13.07
2018-09-30T03:01:39.516Z,11.00
2018-09-30T03:04:07.348Z,13.23
2018-09-30T03:06:40.386Z,13.90
2018-09-30T03:09:14.029Z,9.80
2018-09-30T03:11:42.237Z,10.23
2018-09-30T03:14:10.432Z,13.57
2018-09-30T03:16:38.260Z,12.83
2018-09-30T03:19:06.127Z,16.57
2018-09-30T03:21:34.337Z,11.17
2018-09-30T03:24:02.261Z,10.13
2018-09-30T03:26:30.097Z,12.33
2018-09-30T03:28:57.923Z,10.00
2018-09-30T03:31:25.779Z,15.77
2018-09-30T03:33:53.604Z,12.53
2018-09-30T03:36:21.422Z,14.83
2018-09-30T03:38:49.272Z,11.87
2018-09-30T03:41:17.106Z,10.47
2018-09-30T03:43:44.956Z,13.50
2018-09-30T03:46:12.800Z,13.30
2018-09-30T03:48:40.612Z,13.43
2018-09-30T03:51:08.440Z,12.87
2018-09-30T03:53:36.554Z,12.63
2018-09-30T03:56:04.392Z,12.03
2018-09-30T03:58:32.229Z,12.43
2018-09-30T04:01:00.377Z,13.37
2018-09-30T04:03:28.512Z,11.00
2018-09-30T04:05:56.368Z,12.07
2018-09-30T04:08:24.211Z,12.80
2018-09-30T04:10:52.081Z,13.13
2018-09-30T04:13:20.069Z,10.67
2018-09-30T04:15:47.915Z,12.60
2018-09-30T04:18:15.813Z,12.67
2018-09-30T04:20:43.814Z,14.73
2018-09-30T04:23:11.646Z,11.87
2018-09-30T04:25:39.540Z,13.83
2018-09-30T04:28:07.416Z,10.60
2018-09-30T04:30:35.396Z,12.43
2018-09-30T04:33:03.271Z,15.77
2018-09-30T04:35:31.188Z,12.07
2018-09-30T04:37:59.029Z,13.20
2018-09-30T04:40:26.860Z,14.03
2018-09-30T04:42:54.684Z,13.57
2018-09-30T04:45:22.510Z,12.17
2018-09-30T04:47:50.332Z,10.37
2018-09-30T04:50:18.169Z,14.33
2018-09-30T04:52:46.069Z,13.60
2018-09-30T04:55:13.990Z,12.87
2018-09-30T04:57:41.894Z,13.07
2018-09-30T05:00:09.844Z,13.47
2018-09-30T05:02:37.693Z,13.47
2018-09-30T05:05:05.558Z,18.53
2018-09-30T05:07:33.376Z,20.17
2018-09-30T05:10:01.199Z,13.27
2018-09-30T05:12:29.036Z,14.00
2018-09-30T05:14:56.883Z,9.80
2018-09-30T05:17:24.743Z,13.30
2018-09-30T05:19:52.575Z,15.47
2018-09-30T05:22:20.409Z,11.53
2018-09-30T05:24:48.265Z,15.03
2018-09-30T05:27:16.146Z,13.20
2018-09-30T05:29:44.142Z,12.13
2018-09-30T05:32:12.000Z,15.40
2018-09-30T05:34:39.825Z,11.80
2018-09-30T05:37:07.736Z,18.17
2018-09-30T05:39:35.567Z,11.57
2018-09-30T05:42:03.482Z,13.20
2018-09-30T05:44:31.314Z,13.43
2018-09-30T05:46:59.145Z,11.97
2018-09-30T05:49:27.031Z,18.10
2018-09-30T05:51:55.044Z,13.07
2018-09-30T05:54:22.914Z,12.73
2018-09-30T05:56:50.748Z,15.27
2018-09-30T05:59:18.584Z,14.30
2018-09-30T06:01:46.698Z,14.20
2018-09-30T06:04:14.538Z,12.33
2018-09-30T06:06:42.402Z,14.03
2018-09-30T06:09:12.430Z,13.47
2018-09-30T06:11:40.257Z,15.57
2018-09-30T06:14:08.359Z,15.93
2018-09-30T06:16:36.052Z,13.63
2018-09-30T06:19:04.196Z,12.10
2018-09-30T06:21:32.057Z,14.00
2018-09-30T06:24:00.076Z,18.33
2018-09-30T06:26:27.904Z,12.27
2018-09-30T06:28:55.724Z,15.70
2018-09-30T06:31:23.572Z,14.90
2018-09-30T06:33:51.464Z,15.20
2018-09-30T06:36:19.295Z,15.33
2018-09-30T06:38:47.122Z,14.67
2018-09-30T06:41:15.021Z,16.60
2018-09-30T06:43:42.857Z,16.23
2018-09-30T06:46:10.688Z,14.07
2018-09-30T06:48:38.521Z,14.50
2018-09-30T06:51:06.624Z,13.00
2018-09-30T06:53:34.457Z,13.77
2018-09-30T06:56:02.385Z,14.23
2018-09-30T06:58:30.305Z,19.17
2018-09-30T07:00:58.265Z,13.63
2018-09-30T07:03:26.331Z,17.23
2018-09-30T07:05:54.664Z,14.87
2018-09-30T07:08:22.643Z,18.33
2018-09-30T07:10:50.692Z,16.43
2018-09-30T07:13:18.737Z,15.37
2018-09-30T07:15:46.782Z,15.17
2018-09-30T07:18:14.897Z,16.67
2018-09-30T07:20:42.864Z,14.00
2018-09-30T07:23:10.873Z,15.73
2018-09-30T07:25:38.973Z,16.10
2018-09-30T07:28:07.056Z,14.43
2018-09-30T07:30:35.064Z,16.40
2018-09-30T07:33:03.018Z,17.60
2018-09-30T07:35:30.997Z,13.50
2018-09-30T07:37:59.071Z,17.90
2018-09-30T07:40:27.116Z,13.07
2018-09-30T07:42:55.099Z,14.97
2018-09-30T07:45:23.133Z,14.70
2018-09-30T07:47:51.232Z,13.23
2018-09-30T07:50:19.259Z,16.47
2018-09-30T07:52:47.258Z,13.90
2018-09-30T07:55:15.246Z,16.87
2018-09-30T07:57:43.267Z,13.50
2018-09-30T08:00:11.182Z,13.30
2018-09-30T08:02:39.026Z,17.47
2018-09-30T08:05:06.944Z,14.70
2018-09-30T08:07:34.789Z,12.53
2018-09-30T08:10:02.700Z,13.60
2018-09-30T08:12:30.543Z,13.27
2018-09-30T08:14:58.427Z,12.00
2018-09-30T08:17:26.287Z,13.03
2018-09-30T08:19:54.156Z,14.17
2018-09-30T08:22:21.991Z,12.13
2018-09-30T08:24:49.943Z,14.57
2018-09-30T08:27:17.798Z,11.57
2018-09-30T08:29:45.646Z,12.83
2018-09-30T08:32:13.506Z,12.97
2018-09-30T08:34:41.372Z,15.13
2018-09-30T08:37:09.204Z,12.30
2018-09-30T08:39:37.108Z,13.33
2018-09-30T08:42:05.620Z,13.87
2018-09-30T08:44:33.467Z,13.77
2018-09-30T08:47:01.463Z,14.37
2018-09-30T08:49:29.306Z,13.03
2018-09-30T08:51:57.143Z,13.73
2018-09-30T08:54:24.975Z,14.73
2018-09-30T08:56:52.831Z,14.30
2018-09-30T08:59:20.697Z,12.90
2018-09-30T09:01:48.547Z,14.60
2018-09-30T09:04:16.382Z,10.50
2018-09-30T09:06:44.238Z,12.57
2018-09-30T09:09:13.338Z,9.90
2018-09-30T09:11:41.193Z,11.67
2018-09-30T09:14:09.125Z,16.43
2018-09-30T09:16:36.969Z,16.23
2018-09-30T09:19:04.825Z,14.60
2018-09-30T09:21:32.650Z,11.43
2018-09-30T09:24:00.489Z,10.40
2018-09-30T09:26:28.335Z,12.87
2018-09-30T09:28:56.163Z,11.60
2018-09-30T09:31:24.034Z,11.23
2018-09-30T09:33:51.882Z,13.53
2018-09-30T09:36:19.721Z,15.20
2018-09-30T09:38:47.540Z,13.83
2018-09-30T09:41:15.401Z,12.97
2018-09-30T09:43:43.248Z,11.13
2018-09-30T09:46:11.140Z,11.00
2018-09-30T09:48:38.977Z,12.13
2018-09-30T09:51:06.817Z,14.77
2018-09-30T09:53:34.662Z,13.07
2018-09-30T09:56:02.502Z,16.87
2018-09-30T09:58:30.376Z,10.13
2018-09-30T10:01:02.395Z,12.03
2018-09-30T10:03:30.238Z,12.73
2018-09-30T10:05:58.061Z,9.80
2018-09-30T10:08:25.913Z,10.17
2018-09-30T10:10:53.769Z,9.67
2018-09-30T10:13:21.687Z,10.30
2018-09-30T10:15:49.463Z,9.00
2018-09-30T10:18:17.376Z,12.50
2018-09-30T10:20:45.217Z,12.30
2018-09-30T10:23:13.066Z,13.53
2018-09-30T10:25:40.907Z,16.57
2018-09-30T10:28:08.846Z,12.83
2018-09-30T10:30:36.693Z,13.67
2018-09-30T10:33:04.529Z,15.67
2018-09-30T10:35:32.353Z,17.50
2018-09-30T10:38:00.606Z,14.87
2018-09-30T10:40:28.428Z,11.60
2018-09-30T10:42:56.256Z,13.10
2018-09-30T10:45:24.089Z,11.37
2018-09-30T10:47:51.944Z,14.03
2018-09-30T10:50:23.396Z,12.60
2018-09-30T10:52:51.241Z,11.50
2018-09-30T10:55:19.095Z,14.73
2018-09-30T10:57:47.013Z,9.93
2018-09-30T11:00:15.409Z,9.77
2018-09-30T11:02:43.236Z,12.80
2018-09-30T11:05:11.077Z,13.53
2018-09-30T11:07:38.919Z,17.07
2018-09-30T11:10:07.433Z,11.73
2018-09-30T11:12:36.053Z,12.83
2018-09-30T11:15:03.952Z,10.93
2018-09-30T11:17:32.533Z,12.40
2018-09-30T11:20:00.377Z,16.17
2018-09-30T11:22:29.119Z,14.00
2018-09-30T11:24:57.162Z,11.60
2018-09-30T11:27:25.219Z,15.33
2018-09-30T11:29:53.044Z,16.17
2018-09-30T11:32:20.877Z,15.77
2018-09-30T11:34:49.220Z,15.33
2018-09-30T11:37:17.692Z,15.57
2018-09-30T11:39:45.554Z,15.07
2018-09-30T11:42:13.620Z,15.17
2018-09-30T11:44:41.836Z,11.97
2018-09-30T11:47:10.481Z,12.97
2018-09-30T11:49:38.379Z,12.77
2018-09-30T11:52:06.505Z,10.57
2018-09-30T11:54:34.846Z,8.53
2018-09-30T11:57:02.690Z,8.33
2018-09-30T11:59:30.702Z,7.47
2018-09-30T12:01:59.026Z,11.73
2018-09-30T12:04:26.994Z,10.57
2018-09-30T12:06:54.969Z,11.07
2018-09-30T12:09:22.886Z,13.57
2018-09-30T12:11:50.865Z,10.63
2018-09-30T12:14:18.777Z,12.47
2018-09-30T12:16:46.872Z,11.27
2018-09-30T12:19:14.792Z,9.37
2018-09-30T12:21:42.632Z,8.83
2018-09-30T12:24:10.481Z,12.50
2018-09-30T12:26:38.832Z,11.60
2018-09-30T12:29:06.658Z,10.50
2018-09-30T12:31:34.550Z,16.10
2018-09-30T12:34:02.892Z,14.47
2018-09-30T12:36:30.703Z,9.93
2018-09-30T12:38:58.535Z,10.47
2018-09-30T12:41:27.120Z,10.43
2018-09-30T12:43:54.962Z,12.83
2018-09-30T12:46:22.794Z,15.77
2018-09-30T12:48:50.645Z,13.53
2018-09-30T12:51:18.616Z,12.30
2018-09-30T12:53:46.443Z,11.37
2018-09-30T12:56:14.299Z,13.93
2018-09-30T12:58:42.264Z,12.30
2018-09-30T13:01:10.191Z,10.50
2018-09-30T13:03:38.037Z,11.00
2018-09-30T13:06:05.909Z,14.80
2018-09-30T13:08:33.740Z,13.57
2018-09-30T13:11:01.567Z,13.33
2018-09-30T13:13:29.425Z,18.40
2018-09-30T13:15:57.259Z,14.30
2018-09-30T13:18:25.095Z,15.17
2018-09-30T13:20:52.914Z,10.43
2018-09-30T13:23:20.746Z,15.07
2018-09-30T13:25:48.605Z,12.50
2018-09-30T13:28:16.463Z,17.00
2018-09-30T13:30:44.362Z,11.13
2018-09-30T13:33:12.206Z,12.23
2018-09-30T13:35:40.373Z,11.73
2018-09-30T13:38:08.228Z,12.50
2018-09-30T13:40:36.740Z,10.50
2018-09-30T13:43:04.553Z,15.63
2018-09-30T13:45:32.387Z,16.00
2018-09-30T13:48:00.234Z,11.23
2018-09-30T13:50:28.072Z,13.13
2018-09-30T13:52:55.898Z,20.77
2018-09-30T13:55:23.760Z,11.50
2018-09-30T13:57:51.586Z,10.40
2018-09-30T14:00:19.435Z,11.60
2018-09-30T14:02:48.168Z,11.90
2018-09-30T14:05:16.755Z,16.70
2018-09-30T14:07:45.152Z,14.97
2018-09-30T14:10:13.659Z,11.80
2018-09-30T14:12:42.293Z,11.70
2018-09-30T14:15:10.686Z,10.43
2018-09-30T14:17:39.167Z,13.47
2018-09-30T14:20:07.409Z,11.30
2018-09-30T14:22:36.035Z,12.20
2018-09-30T14:25:04.467Z,11.63
2018-09-30T14:27:32.888Z,15.33
2018-09-30T14:30:01.370Z,10.03
2018-09-30T14:32:29.748Z,12.37
2018-09-30T14:34:58.300Z,8.17
2018-09-30T14:37:26.849Z,7.77
2018-09-30T14:39:55.290Z,9.20
2018-09-30T14:42:23.703Z,8.53
2018-09-30T14:44:51.980Z,8.93
2018-09-30T14:47:19.896Z,6.83
2018-09-30T14:49:47.729Z,7.60
2018-09-30T14:52:15.606Z,7.30
2018-09-30T14:54:43.445Z,6.17
2018-09-30T14:57:12.020Z,7.97
2018-09-30T14:59:40.717Z,8.43
2018-09-30T15:02:09.056Z,9.03
2018-09-30T15:04:37.932Z,7.03
2018-09-30T15:07:06.496Z,9.27
2018-09-30T15:09:35.005Z,9.40
2018-09-30T15:12:02.845Z,6.87
2018-09-30T15:14:31.288Z,6.37
2018-09-30T15:16:59.930Z,6.27
2018-09-30T15:19:28.559Z,7.63
2018-09-30T15:21:57.001Z,6.03
2018-09-30T15:24:25.828Z,10.27
2018-09-30T15:26:54.055Z,8.20
2018-09-30T15:29:22.499Z,6.70
2018-09-30T15:31:50.951Z,6.57
2018-09-30T15:34:19.392Z,8.90
2018-09-30T15:36:47.859Z,7.97
2018-09-30T15:39:16.534Z,6.63
2018-09-30T15:41:45.113Z,7.90
2018-09-30T15:44:13.743Z,9.70
2018-09-30T15:46:42.011Z,6.73
2018-09-30T15:49:10.689Z,6.80
2018-09-30T15:51:39.343Z,7.53
2018-09-30T15:54:07.932Z,7.67
2018-09-30T15:56:35.785Z,7.07
2018-09-30T15:59:04.209Z,8.40
2018-09-30T16:01:32.037Z,7.60
2018-09-30T16:04:00.445Z,6.70
2018-09-30T16:06:28.730Z,7.90
2018-09-30T16:08:57.415Z,8.20
2018-09-30T16:11:25.668Z,7.97
2018-09-30T16:13:54.013Z,7.30
2018-09-30T16:16:22.664Z,8.63
2018-09-30T16:18:51.522Z,7.80
2018-09-30T16:21:20.173Z,8.20
2018-09-30T16:23:48.796Z,10.10
2018-09-30T16:26:17.428Z,11.47
2018-09-30T16:28:47.471Z,8.60
2018-09-30T16:31:18.234Z,7.00
2018-09-30T16:33:50.224Z,8.37
2018-09-30T16:36:18.854Z,7.33
2018-09-30T16:38:47.483Z,6.83
2018-09-30T16:41:16.181Z,6.87
2018-09-30T16:43:44.736Z,9.57
2018-09-30T16:46:13.265Z,8.40
2018-09-30T16:48:41.843Z,9.20
2018-09-30T16:51:10.525Z,9.10
2018-09-30T16:53:39.140Z,8.03
2018-09-30T16:56:07.848Z,10.40
2018-09-30T16:58:35.815Z,8.13
2018-09-30T17:01:04.434Z,8.53
2018-09-30T17:03:33.061Z,7.33
2018-09-30T17:06:01.495Z,7.20
2018-09-30T17:08:29.903Z,9.27
2018-09-30T17:10:58.379Z,8.23
2018-09-30T17:13:27.022Z,7.87
2018-09-30T17:15:55.724Z,7.90
2018-09-30T17:18:24.304Z,7.73
2018-09-30T17:20:52.928Z,7.70
2018-09-30T17:23:21.379Z,9.43
2018-09-30T17:25:49.196Z,12.87
2018-09-30T17:28:17.653Z,8.53
2018-09-30T17:30:46.387Z,8.80
2018-09-30T17:33:14.929Z,9.80
2018-09-30T17:35:42.779Z,9.63
2018-09-30T17:38:10.605Z,9.23
2018-09-30T17:40:38.736Z,12.37
2018-09-30T17:43:07.317Z,9.10
2018-09-30T17:45:35.963Z,8.73
2018-09-30T17:48:04.628Z,11.10
2018-09-30T17:50:33.031Z,9.93
2018-09-30T17:53:01.655Z,10.30
2018-09-30T17:55:30.298Z,8.93
2018-09-30T17:57:58.988Z,9.93
2018-09-30T18:00:26.828Z,9.40
2018-09-30T18:02:54.919Z,13.40
2018-09-30T18:05:22.875Z,10.43
2018-09-30T18:07:50.718Z,8.87
2018-09-30T18:10:18.949Z,8.47
2018-09-30T18:12:47.058Z,11.20
2018-09-30T18:15:15.657Z,10.70
2018-09-30T18:17:43.543Z,8.10
2018-09-30T18:20:11.764Z,10.43
2018-09-30T18:22:40.380Z,8.50
2018-09-30T18:25:09.021Z,10.27
2018-09-30T18:27:37.648Z,8.70
2018-09-30T18:30:06.146Z,9.23
2018-09-30T18:32:34.504Z,8.80
2018-09-30T18:35:02.845Z,10.33
2018-09-30T18:37:31.196Z,9.80
2018-09-30T18:39:59.714Z,11.33
2018-09-30T18:42:28.325Z,9.00
2018-09-30T18:44:56.942Z,8.73
2018-09-30T18:47:25.572Z,10.33
2018-09-30T18:49:53.391Z,8.07
2018-09-30T18:52:21.355Z,8.13
2018-09-30T18:54:49.911Z,8.13
2018-09-30T18:57:18.549Z,10.47
2018-09-30T18:59:46.972Z,12.80
2018-09-30T19:02:15.993Z,11.50
2018-09-30T19:04:44.840Z,9.17
2018-09-30T19:07:13.753Z,13.13
2018-09-30T19:09:42.323Z,8.80
2018-09-30T19:12:10.803Z,8.60
2018-09-30T19:14:39.400Z,11.37
2018-09-30T19:17:11.753Z,8.57
2018-09-30T19:19:39.969Z,9.20
2018-09-30T19:25:03.803Z,8.93
2018-09-30T19:27:32.359Z,9.83
2018-09-30T19:32:56.535Z,13.43
2018-09-30T19:35:24.359Z,10.43
2018-09-30T19:37:52.184Z,9.10
2018-09-30T19:40:20.026Z,8.97
2018-09-30T19:42:47.866Z,8.27
2018-09-30T19:45:16.635Z,9.53
2018-09-30T19:47:44.544Z,8.70
2018-09-30T19:50:13.056Z,9.23
2018-09-30T19:52:41.443Z,12.10
2018-09-30T19:55:09.333Z,12.80
2018-09-30T19:57:37.303Z,12.30
2018-09-30T20:00:05.174Z,9.90
2018-09-30T20:02:33.096Z,11.70
2018-09-30T20:05:01.115Z,12.33
2018-09-30T20:07:29.496Z,27.87
2018-09-30T20:09:57.870Z,14.83
2018-09-30T20:12:25.757Z,12.90
2018-09-30T20:14:53.612Z,12.63
2018-09-30T20:17:21.547Z,13.97
2018-09-30T20:19:49.410Z,13.40
2018-09-30T20:22:17.315Z,11.43
2018-09-30T20:24:45.261Z,12.27
2018-09-30T20:27:14.004Z,14.37
2018-09-30T20:29:41.886Z,12.93
2018-09-30T20:32:09.755Z,12.30
2018-09-30T20:34:38.016Z,11.40
2018-09-30T20:37:05.995Z,13.67
2018-09-30T20:39:33.837Z,14.33
2018-09-30T20:42:01.756Z,17.23
2018-09-30T20:44:30.448Z,13.57
2018-09-30T20:46:59.157Z,12.67
2018-09-30T20:49:27.059Z,13.23
2018-09-30T20:51:54.964Z,12.17
2018-09-30T20:54:22.806Z,12.33
2018-09-30T20:56:50.699Z,14.20
2018-09-30T20:59:18.543Z,13.40
2018-09-30T21:01:46.493Z,14.03
2018-09-30T21:04:14.375Z,14.43
2018-09-30T21:06:44.339Z,14.20
2018-09-30T21:09:13.801Z,14.43
2018-09-30T21:11:41.704Z,15.73
2018-09-30T21:14:09.566Z,12.33
2018-09-30T21:16:37.502Z,16.13
2018-09-30T21:19:05.396Z,14.53
2018-09-30T21:21:33.257Z,13.47
2018-09-30T21:24:01.165Z,14.37
2018-09-30T21:26:28.991Z,12.13
2018-09-30T21:28:56.850Z,14.70
2018-09-30T21:31:24.772Z,13.73
2018-09-30T21:33:53.151Z,11.53
2018-09-30T21:36:21.588Z,12.60
2018-09-30T21:38:49.460Z,11.83
2018-09-30T21:41:17.349Z,11.90
2018-09-30T21:43:45.922Z,12.13
2018-09-30T21:46:13.853Z,13.37
2018-09-30T21:48:41.820Z,14.10
2018-09-30T21:51:10.430Z,11.83
2018-09-30T21:53:38.272Z,12.57
2018-09-30T21:56:06.163Z,9.60
2018-09-30T21:58:34.022Z,9.30
2018-09-30T22:01:03.159Z,11.87
2018-09-30T22:03:31.197Z,7.03
2018-09-30T22:05:59.076Z,10.17
2018-09-30T22:08:27.087Z,11.77
2018-09-30T22:10:55.643Z,6.83
2018-09-30T22:13:23.521Z,6.10
2018-09-30T22:15:51.382Z,8.27
2018-09-30T22:18:19.235Z,6.60
2018-09-30T22:20:47.108Z,4.63
2018-09-30T22:23:14.963Z,4.23
2018-09-30T22:25:42.930Z,4.10
2018-09-30T22:28:10.857Z,4.20
2018-09-30T22:30:38.702Z,7.37
2018-09-30T22:33:06.590Z,5.47
2018-09-30T22:35:34.902Z,5.77
2018-09-30T22:38:03.527Z,4.50
2018-09-30T22:40:31.369Z,9.10
2018-09-30T22:42:59.223Z,4.20
2018-09-30T22:45:27.137Z,8.10
2018-09-30T22:47:54.974Z,5.47
2018-09-30T22:50:22.822Z,6.27
2018-09-30T22:52:50.643Z,6.07
2018-09-30T22:55:18.586Z,8.07
2018-09-30T22:57:46.391Z,4.60
2018-09-30T23:00:14.332Z,5.80
2018-09-30T23:02:42.172Z,5.50
2018-09-30T23:05:10.358Z,5.37
2018-09-30T23:07:38.235Z,4.53
2018-09-30T23:12:50.247Z,7.03
2018-09-30T23:15:18.073Z,4.33
2018-09-30T23:17:46.016Z,6.40
2018-09-30T23:20:17.014Z,5.80
2018-09-30T23:22:46.519Z,6.90
2018-09-30T23:25:14.422Z,4.10
2018-09-30T23:27:42.301Z,4.57
2018-09-30T23:30:10.162Z,4.13
2018-09-30T23:32:38.724Z,6.20
2018-09-30T23:35:06.711Z,2.80
2018-09-30T23:37:34.571Z,4.50
2018-09-30T23:40:02.495Z,3.57
2018-09-30T23:42:30.887Z,5.90
2018-09-30T23:44:58.718Z,3.10
2018-09-30T23:47:26.963Z,6.77
2018-09-30T23:49:55.656Z,6.37
2018-09-30T23:52:23.496Z,3.87
2018-09-30T23:54:51.458Z,3.83
2018-09-30T23:57:19.280Z,3.63
2018-09-30T23:59:47.368Z,6.77
